Time;durP1;ratioP1;P1;durP2;ratioP2;P2;SDS_P1;SDS_P2;PMS_P1;PMS_P2;Temp;Humidity;BMP_temperature;BMP_pressure;BME280_temperature;BME280_humidity;BME280_pressure;Samples;Min_cycle;Max_cycle;Signal;HPM_P1;HPM_P2
2022/11/03 00:01:43;;;;;;;15.55;13.95;;;;;;;17.07;55.79;101865.98;1722267;82;21011;-50
2022/11/03 00:04:17;;;;;;;15.55;13.83;;;;;;;17.06;55.85;101869.55;1685449;84;21027;-50
2022/11/03 00:06:48;;;;;;;14.63;12.98;;;;;;;17.03;55.85;101869.62;1688453;85;20987;-50
2022/11/03 00:09:16;;;;;;;14.78;13.03;;;;;;;17.01;55.77;101863.55;1689712;84;21023;-50
2022/11/03 00:11:46;;;;;;;15.83;14.03;;;;;;;16.99;55.66;101868.00;1677786;84;20998;-51
2022/11/03 00:14:13;;;;;;;14.68;13.18;;;;;;;16.98;55.74;101867.13;1658361;84;21053;-50
2022/11/03 00:16:42;;;;;;;16.67;13.45;;;;;;;16.96;55.71;101864.16;1682923;84;21560;-50
2022/11/03 00:19:09;;;;;;;16.67;13.93;;;;;;;16.95;55.77;101862.42;1674850;84;21017;-50
2022/11/03 00:21:37;;;;;;;15.85;14.15;;;;;;;16.97;55.77;101864.55;1673355;85;21066;-50
2022/11/03 00:24:05;;;;;;;17.40;14.58;;;;;;;17.00;55.56;101857.91;1677609;84;21128;-51
2022/11/03 00:26:34;;;;;;;15.03;13.32;;;;;;;17.02;55.34;101865.29;1682676;85;21053;-50
2022/11/03 00:29:10;;;;;;;14.20;12.75;;;;;;;17.06;55.03;101864.28;1668843;85;21105;-50
2022/11/03 00:31:40;;;;;;;17.15;13.62;;;;;;;17.08;54.94;101863.78;1676965;84;21057;-50
2022/11/03 00:34:07;;;;;;;14.70;12.68;;;;;;;17.09;54.72;101868.12;1670568;85;21132;-50
2022/11/03 00:36:40;;;;;;;15.32;13.45;;;;;;;17.10;54.81;101869.86;1680275;84;21628;-50
2022/11/03 00:39:07;;;;;;;16.07;13.55;;;;;;;17.07;55.11;101873.87;1618081;87;21082;-50
2022/11/03 00:41:35;;;;;;;16.15;12.73;;;;;;;17.03;55.12;101870.49;1621766;87;21110;-50
2022/11/03 00:44:02;;;;;;;15.70;13.08;;;;;;;17.01;55.01;101876.70;1607052;87;21132;-50
2022/11/03 00:46:29;;;;;;;16.35;12.53;;;;;;;16.95;55.35;101879.07;1608835;86;21139;-50
2022/11/03 00:48:57;;;;;;;15.85;12.13;;;;;;;16.94;55.71;101883.03;1621309;87;21097;-50
2022/11/03 00:51:29;;;;;;;14.87;12.37;;;;;;;16.93;55.76;101880.89;1622544;87;21194;-50
2022/11/03 00:54:00;;;;;;;16.42;12.47;;;;;;;16.91;55.72;101884.02;1626684;87;21079;-51
2022/11/03 00:56:37;;;;;;;17.15;12.55;;;;;;;16.89;55.77;101879.70;1612235;87;21045;-51
2022/11/03 00:59:05;;;;;;;12.98;11.57;;;;;;;16.85;55.87;101880.70;1619433;87;21139;-51
2022/11/03 01:01:36;;;;;;;14.93;12.33;;;;;;;16.83;55.92;101874.63;1599971;88;21067;-51
2022/11/03 01:06:51;;;;;;;13.93;11.33;;;;;;;16.76;55.91;101876.58;1656296;85;21078;-50
2022/11/03 01:09:24;;;;;;;14.70;12.68;;;;;;;16.73;55.85;101879.75;1677378;85;21121;-50
2022/11/03 01:12:07;;;;;;;13.55;11.65;;;;;;;16.72;55.81;101879.33;1639288;86;21058;-50
2022/11/03 01:14:41;;;;;;;13.72;12.18;;;;;;;16.72;55.79;101881.95;1635663;86;21539;-50
2022/11/03 01:17:19;;;;;;;14.95;12.90;;;;;;;16.71;55.67;101878.94;1627798;86;21579;-49
2022/11/03 01:19:46;;;;;;;17.98;12.73;;;;;;;16.73;55.63;101889.79;1634157;86;21126;-50
2022/11/03 01:22:13;;;;;;;15.30;12.85;;;;;;;16.77;55.59;101885.33;1643891;86;21082;-52
2022/11/03 01:24:40;;;;;;;14.90;12.82;;;;;;;16.80;55.48;101883.91;1638011;86;21087;-50
2022/11/03 01:27:09;;;;;;;16.12;12.75;;;;;;;16.83;55.38;101886.45;1638544;86;21015;-51
2022/11/03 01:29:35;;;;;;;19.42;13.68;;;;;;;16.86;55.46;101886.34;1642080;86;21177;-51
2022/11/03 01:32:04;;;;;;;16.12;12.82;;;;;;;16.86;55.41;101883.72;1648647;86;21129;-50
2022/11/03 01:34:31;;;;;;;15.50;13.83;;;;;;;16.89;55.33;101884.96;1637175;86;21106;-50
2022/11/03 01:36:58;;;;;;;14.55;13.00;;;;;;;16.92;55.03;101882.22;1628468;86;21081;-50
2022/11/03 01:39:25;;;;;;;17.12;13.72;;;;;;;16.98;54.56;101884.70;1671774;85;21006;-50
2022/11/03 01:41:53;;;;;;;15.83;14.05;;;;;;;17.02;54.13;101886.33;1680561;84;21070;-50
2022/11/03 01:44:35;;;;;;;19.17;14.10;;;;;;;17.02;53.81;101887.16;1672220;85;21074;-50
2022/11/03 01:47:26;;;;;;;18.20;15.05;;;;;;;16.99;53.62;101893.84;1686482;84;20986;-50
2022/11/03 01:50:06;;;;;;;19.55;15.40;;;;;;;16.95;53.61;101894.84;1678774;84;21762;-50
2022/11/03 01:52:40;;;;;;;17.65;14.45;;;;;;;16.94;53.57;101902.31;1657720;85;21646;-51
2022/11/03 01:55:11;;;;;;;16.70;14.87;;;;;;;16.93;53.63;101910.25;1668066;84;21102;-50
2022/11/03 01:57:41;;;;;;;19.57;14.27;;;;;;;16.91;53.82;101905.05;1663421;85;21065;-50
2022/11/03 02:00:10;;;;;;;18.50;14.93;;;;;;;16.93;53.90;101910.25;1669530;84;21156;-50
2022/11/03 02:02:40;;;;;;;18.57;13.65;;;;;;;16.92;53.98;101911.14;1654866;85;21192;-51
2022/11/03 02:05:08;;;;;;;18.70;14.70;;;;;;;16.92;54.10;101908.52;1657440;84;21604;-50
2022/11/03 02:07:46;;;;;;;17.62;14.70;;;;;;;16.94;54.18;101913.27;1666900;83;21539;-50
2022/11/03 02:10:13;;;;;;;17.87;14.55;;;;;;;16.97;54.26;101915.37;1660660;86;21019;-50
2022/11/03 02:12:41;;;;;;;16.77;13.90;;;;;;;17.01;54.22;101918.77;1659992;86;21070;-51
2022/11/03 02:15:11;;;;;;;17.70;13.60;;;;;;;17.03;54.16;101919.59;1661386;86;21585;-50
2022/11/03 02:17:39;;;;;;;16.55;13.85;;;;;;;17.03;53.98;101924.84;1655147;86;21578;-50
2022/11/03 02:20:25;;;;;;;14.68;13.08;;;;;;;17.03;53.98;101919.59;1657058;86;21058;-50
2022/11/03 02:23:22;;;;;;;17.55;14.03;;;;;;;17.04;54.02;101915.59;1660066;86;21050;-50
2022/11/03 02:25:58;;;;;;;16.20;14.40;;;;;;;17.08;53.91;101920.33;1647100;86;21042;-52
2022/11/03 02:28:30;;;;;;;15.55;13.48;;;;;;;17.12;54.00;101926.34;1649204;86;21091;-51
2022/11/03 02:31:17;;;;;;;16.90;13.80;;;;;;;17.15;53.94;101929.73;1660055;85;21095;-50
2022/11/03 02:34:02;;;;;;;15.95;13.88;;;;;;;17.18;54.07;101925.71;1651389;86;21098;-51
2022/11/03 02:36:50;;;;;;;17.52;13.58;;;;;;;17.17;54.20;101925.28;1661394;84;21066;-51
2022/11/03 02:39:31;;;;;;;16.55;13.65;;;;;;;17.13;54.47;101922.34;1660361;85;21066;-51
2022/11/03 02:41:58;;;;;;;18.32;13.25;;;;;;;17.10;54.80;101920.66;1640804;87;21056;-51
2022/11/03 02:44:24;;;;;;;15.90;12.53;;;;;;;17.10;55.23;101925.92;1616595;86;21562;-51
2022/11/03 02:46:55;;;;;;;16.77;14.00;;;;;;;17.10;55.49;101930.34;1629669;86;21050;-51
2022/11/03 02:49:22;;;;;;;14.83;12.30;;;;;;;17.10;55.71;101923.77;1640366;86;21086;-51
2022/11/03 02:52:01;;;;;;;15.18;12.35;;;;;;;17.10;55.88;101934.29;1657040;86;21031;-51
2022/11/03 02:54:33;;;;;;;14.18;12.68;;;;;;;17.12;55.89;101932.92;1539428;92;21128;-52
2022/11/03 02:57:13;;;;;;;15.65;13.08;;;;;;;17.13;55.91;101929.36;1502835;94;21163;-51
2022/11/03 02:59:48;;;;;;;17.55;13.05;;;;;;;17.13;55.97;101940.75;1512793;93;21078;-51
2022/11/03 03:02:20;;;;;;;15.08;12.43;;;;;;;17.12;56.19;101939.49;1493129;94;21630;-52
2022/11/03 03:04:52;;;;;;;13.35;11.95;;;;;;;17.15;56.18;101932.36;1510790;93;21078;-52
2022/11/03 03:07:31;;;;;;;14.90;12.20;;;;;;;17.18;56.18;101929.66;1496585;95;21527;-52
2022/11/03 03:10:20;;;;;;;16.70;12.82;;;;;;;17.20;56.02;101933.09;1479247;95;21179;-52
2022/11/03 03:12:56;;;;;;;15.90;12.80;;;;;;;17.22;55.94;101930.41;1477406;95;21145;-51
2022/11/03 03:15:48;;;;;;;14.63;12.98;;;;;;;17.26;55.84;101943.44;1487103;94;21165;-49
2022/11/03 03:18:29;;;;;;;18.85;13.98;;;;;;;17.29;55.72;101943.32;1499360;94;21135;-51
2022/11/03 03:21:04;;;;;;;17.50;13.65;;;;;;;17.33;55.46;101946.27;1435681;97;21135;-51
2022/11/03 03:23:34;;;;;;;16.50;13.72;;;;;;;17.34;55.07;101946.69;1457612;96;21171;-52
2022/11/03 03:26:08;;;;;;;15.45;13.28;;;;;;;17.34;54.81;101944.05;1458118;98;21164;-52
2022/11/03 03:28:47;;;;;;;15.88;14.20;;;;;;;17.32;54.69;101946.32;1458064;98;21169;-52
2022/11/03 03:31:14;;;;;;;17.23;14.53;;;;;;;17.30;54.37;101954.72;1458019;98;21158;-51
2022/11/03 03:33:42;;;;;;;17.10;14.33;;;;;;;17.28;54.18;101949.51;1457596;98;21134;-52
2022/11/03 03:36:11;;;;;;;15.60;14.00;;;;;;;17.27;53.92;101952.20;1455887;98;21103;-52
2022/11/03 03:38:42;;;;;;;17.80;14.78;;;;;;;17.24;53.77;101950.52;1464351;96;21103;-52
2022/11/03 03:41:10;;;;;;;16.12;13.85;;;;;;;17.23;53.62;101950.56;1463488;97;21291;-52
2022/11/03 03:43:38;;;;;;;17.00;14.30;;;;;;;17.19;53.55;101950.25;1463348;97;21083;-52
2022/11/03 03:46:07;;;;;;;14.87;13.15;;;;;;;17.13;53.59;101952.59;1463549;97;21190;-52
2022/11/03 03:48:33;;;;;;;17.23;14.45;;;;;;;17.08;53.70;101943.52;1464791;97;21658;-52
2022/11/03 03:51:00;;;;;;;15.83;13.48;;;;;;;17.02;53.94;101945.02;1496593;94;21113;-52
2022/11/03 03:53:28;;;;;;;16.07;13.58;;;;;;;16.98;54.03;101940.75;1509811;94;21117;-51
2022/11/03 03:55:55;;;;;;;14.10;12.50;;;;;;;16.94;54.17;101946.14;1503156;94;21063;-52
2022/11/03 03:58:22;;;;;;;14.00;11.80;;;;;;;16.84;54.24;101935.03;1506050;94;21106;-52
2022/11/03 04:00:48;;;;;;;14.03;11.90;;;;;;;16.76;54.10;101933.53;1518870;93;21244;-53
2022/11/03 04:03:19;;;;;;;14.65;11.88;;;;;;;16.68;54.17;101931.58;1521899;94;21059;-52
2022/11/03 04:05:45;;;;;;;14.07;11.08;;;;;;;16.59;54.14;101938.42;1516224;94;21109;-52
2022/11/03 04:08:13;;;;;;;12.73;11.40;;;;;;;16.54;54.15;101936.36;1510585;94;21114;-51
2022/11/03 04:10:40;;;;;;;14.00;11.45;;;;;;;16.47;54.22;101937.38;1509212;94;21125;-52
2022/11/03 04:23:56;;;;;;;12.05;10.45;;;;;;;16.32;54.43;101953.58;1748715;80;21040;-52
2022/11/03 04:26:23;;;;;;;14.87;10.60;;;;;;;16.32;54.47;101952.27;1747869;80;21042;-52
2022/11/03 04:28:51;;;;;;;12.30;11.10;;;;;;;16.30;54.38;101957.53;1748550;80;21487;-52
2022/11/03 04:31:18;;;;;;;12.15;10.82;;;;;;;16.30;54.35;101965.41;1743954;81;21535;-52
2022/11/03 04:33:46;;;;;;;11.80;10.48;;;;;;;16.30;54.29;101966.28;1752095;81;21011;-52
2022/11/03 04:36:22;;;;;;;11.65;10.43;;;;;;;16.32;54.25;101969.34;1755366;81;21616;-53
2022/11/03 04:38:49;;;;;;;11.85;10.63;;;;;;;16.31;54.04;101967.16;1750334;80;21085;-51
2022/11/03 04:41:22;;;;;;;12.43;9.75;;;;;;;16.28;53.95;101968.09;1762510;80;21010;-50
2022/11/03 04:43:51;;;;;;;10.93;9.70;;;;;;;16.26;53.65;101972.52;1754643;80;20986;-51
2022/11/03 04:46:26;;;;;;;12.90;10.35;;;;;;;16.22;53.82;101973.50;1765977;80;21054;-51
2022/11/03 04:48:56;;;;;;;12.13;10.00;;;;;;;16.21;53.83;101974.42;1765812;80;21022;-49
2022/11/03 04:51:25;;;;;;;11.95;10.08;;;;;;;16.19;54.07;101976.22;1764732;80;21129;-50
2022/11/03 04:53:57;;;;;;;10.18;9.13;;;;;;;16.19;53.96;101983.23;1766251;80;21010;-50
2022/11/03 04:56:24;;;;;;;13.10;10.23;;;;;;;16.18;53.72;101984.98;1753414;80;21077;-50
2022/11/03 04:58:52;;;;;;;11.10;9.95;;;;;;;16.15;53.45;101992.95;1758422;80;21042;-49
2022/11/03 05:01:21;;;;;;;13.30;9.88;;;;;;;16.12;53.48;101989.52;1763468;80;21113;-50
2022/11/03 05:03:49;;;;;;;12.68;10.60;;;;;;;16.08;53.51;101995.31;1772374;80;21546;-50
2022/11/03 05:06:22;;;;;;;11.25;10.05;;;;;;;16.07;53.73;101997.51;1765692;80;21033;-50
2022/11/03 05:08:56;;;;;;;11.28;10.08;;;;;;;16.06;53.84;101999.73;1756003;80;20982;-50
2022/11/03 05:11:37;;;;;;;15.83;10.23;;;;;;;16.09;53.83;102002.75;1693203;84;21105;-49
2022/11/03 05:14:19;;;;;;;11.57;10.38;;;;;;;16.11;53.92;101995.69;1677005;84;21047;-50
2022/11/03 05:16:47;;;;;;;14.23;10.95;;;;;;;16.12;53.85;102006.15;1674442;84;21192;-49
2022/11/03 05:19:18;;;;;;;12.88;10.50;;;;;;;16.15;54.05;102018.34;1687972;84;21090;-49
2022/11/03 05:21:48;;;;;;;12.87;10.53;;;;;;;16.17;54.02;102022.67;1674214;84;21576;-49
2022/11/03 05:24:14;;;;;;;12.68;10.72;;;;;;;16.18;54.05;102024.38;1671602;84;21051;-50
2022/11/03 05:26:41;;;;;;;13.53;11.80;;;;;;;16.20;54.11;102027.83;1684101;84;21560;-50
2022/11/03 05:29:19;;;;;;;15.40;10.82;;;;;;;16.24;54.32;102032.10;1685632;84;21075;-50
2022/11/03 05:31:47;;;;;;;12.53;10.58;;;;;;;16.30;54.30;102029.32;1684672;84;21085;-49
2022/11/03 05:34:29;;;;;;;13.43;11.70;;;;;;;16.35;54.24;102025.27;1700183;84;21062;-50
2022/11/03 05:37:00;;;;;;;14.15;11.78;;;;;;;16.41;54.29;102022.92;1679037;84;21178;-50
2022/11/03 05:39:37;;;;;;;13.53;11.30;;;;;;;16.49;54.19;102024.50;1647413;86;21066;-49
2022/11/03 05:42:21;;;;;;;13.90;11.50;;;;;;;16.61;53.96;102023.33;1650327;86;21061;-50
2022/11/03 05:44:49;;;;;;;15.40;11.78;;;;;;;16.71;53.63;102033.53;1643526;86;21069;-50
2022/11/03 05:47:25;;;;;;;12.55;11.25;;;;;;;16.76;53.26;102043.92;1644655;85;21078;-49
2022/11/03 05:50:15;;;;;;;16.02;11.03;;;;;;;16.78;53.21;102047.37;1641921;85;21129;-50
2022/11/03 05:52:44;;;;;;;12.20;10.15;;;;;;;16.81;53.14;102047.31;1636619;86;21091;-50
2022/11/03 05:55:25;;;;;;;14.20;11.70;;;;;;;16.86;53.16;102047.59;1639274;86;21302;-50
2022/11/03 05:57:56;;;;;;;13.28;11.28;;;;;;;16.92;53.13;102050.48;1581515;89;21578;-50
2022/11/03 06:00:28;;;;;;;14.55;11.80;;;;;;;16.98;53.05;102049.88;1555726;89;21063;-51
2022/11/03 06:02:56;;;;;;;13.00;10.78;;;;;;;17.04;52.93;102058.91;1580906;89;21722;-50
2022/11/03 06:05:24;;;;;;;11.38;9.93;;;;;;;17.10;52.86;102068.41;1570298;90;21130;-49
2022/11/03 06:07:55;;;;;;;11.73;10.53;;;;;;;17.16;52.84;102067.37;1573259;89;21050;-50
2022/11/03 06:10:28;;;;;;;13.53;11.53;;;;;;;17.21;52.75;102068.95;1585666;89;21633;-51
2022/11/03 06:13:02;;;;;;;11.53;10.32;;;;;;;17.27;52.61;102071.89;1580115;90;21132;-50
2022/11/03 06:15:33;;;;;;;15.48;11.40;;;;;;;17.31;52.54;102066.47;1585756;90;21045;-50
2022/11/03 06:18:02;;;;;;;13.48;11.45;;;;;;;17.35;52.51;102067.27;1564859;90;21101;-49
2022/11/03 06:20:31;;;;;;;12.82;11.12;;;;;;;17.37;52.52;102067.61;1561141;90;21500;-49
2022/11/03 06:22:57;;;;;;;14.30;11.63;;;;;;;17.40;52.56;102071.48;1558005;90;21117;-51
2022/11/03 06:25:36;;;;;;;13.03;11.33;;;;;;;17.42;52.69;102070.98;1568824;91;21092;-50
2022/11/03 06:28:04;;;;;;;11.85;10.65;;;;;;;17.43;52.72;102063.95;1573814;91;21045;-51
2022/11/03 06:30:33;;;;;;;13.40;10.72;;;;;;;17.43;52.75;102072.72;1560664;90;21612;-49
2022/11/03 06:33:24;;;;;;;11.57;10.38;;;;;;;17.43;52.93;102075.80;1554340;90;21133;-50
2022/11/03 06:35:53;;;;;;;12.60;10.63;;;;;;;17.40;53.01;102075.42;1645400;86;21576;-49
2022/11/03 06:38:23;;;;;;;15.35;11.05;;;;;;;17.40;53.16;102078.06;1655384;85;21628;-49
2022/11/03 06:40:51;;;;;;;13.90;10.67;;;;;;;17.41;53.28;102078.93;1648477;86;21037;-50
2022/11/03 06:43:23;;;;;;;12.23;10.23;;;;;;;17.42;53.31;102084.14;1662890;84;21045;-49
2022/11/03 06:45:53;;;;;;;12.88;10.80;;;;;;;17.44;53.31;102084.95;1669766;84;21037;-50
2022/11/03 06:48:23;;;;;;;11.35;10.00;;;;;;;17.47;53.25;102078.30;1674045;84;21041;-49
2022/11/03 06:50:51;;;;;;;12.05;10.75;;;;;;;17.54;53.36;102082.94;1671739;84;21057;-50
2022/11/03 06:53:28;;;;;;;16.35;10.32;;;;;;;17.54;53.36;102082.94;1665835;84;21070;-49
2022/11/03 06:55:55;;;;;;;11.50;10.30;;;;;;;17.57;53.21;102085.05;1599741;88;21055;-50
2022/11/03 06:58:37;;;;;;;13.10;10.80;;;;;;;17.60;53.21;102078.81;1597106;89;21228;-49
2022/11/03 07:01:24;;;;;;;11.95;10.23;;;;;;;17.65;53.23;102086.12;1651125;85;21065;-50
2022/11/03 07:04:00;;;;;;;10.50;9.38;;;;;;;17.69;53.14;102085.13;1570062;89;22431;-50
2022/11/03 07:06:33;;;;;;;11.70;9.83;;;;;;;17.71;53.13;102086.81;1584202;89;21082;-51
2022/11/03 07:09:03;;;;;;;12.47;9.25;;;;;;;17.70;53.05;102085.08;1562263;89;21046;-50
2022/11/03 07:11:34;;;;;;;10.48;9.40;;;;;;;17.69;52.94;102086.00;1562181;89;22403;-50
2022/11/03 07:14:20;;;;;;;11.90;9.90;;;;;;;17.65;52.88;102076.47;1562254;90;21065;-50
2022/11/03 07:16:51;;;;;;;12.20;9.48;;;;;;;17.62;52.98;102075.70;1544105;91;21095;-49
2022/11/03 07:19:25;;;;;;;12.18;9.53;;;;;;;17.59;53.09;102071.39;1504530;93;21157;-51
2022/11/03 07:21:54;;;;;;;12.98;10.78;;;;;;;17.62;53.21;102069.97;1505322;93;21118;-50
2022/11/03 07:24:36;;;;;;;10.58;9.48;;;;;;;17.64;53.22;102064.20;1502523;94;21195;-50
2022/11/03 07:27:21;;;;;;;13.08;9.70;;;;;;;17.68;53.27;102067.14;1490289;95;21145;-50
2022/11/03 07:29:48;;;;;;;11.38;10.15;;;;;;;17.73;53.32;102071.83;1474747;96;21102;-50
2022/11/03 07:32:19;;;;;;;11.43;9.43;;;;;;;17.77;53.44;102068.20;1488180;93;21082;-50
2022/11/03 07:34:47;;;;;;;13.47;10.13;;;;;;;17.82;53.43;102072.88;1497329;94;21124;-51
2022/11/03 07:37:19;;;;;;;11.53;10.18;;;;;;;17.90;53.39;102076.58;1535035;92;21176;-51
2022/11/03 07:39:50;;;;;;;12.70;9.68;;;;;;;17.93;53.36;102073.00;1533840;92;21552;-50
2022/11/03 07:42:22;;;;;;;14.07;10.35;;;;;;;17.94;53.31;102066.80;1518876;93;21120;-50
2022/11/03 07:44:50;;;;;;;13.53;10.28;;;;;;;17.91;53.35;102067.75;1510792;93;21059;-51
2022/11/03 07:47:19;;;;;;;13.72;10.98;;;;;;;17.87;53.58;102067.00;1527075;92;21195;-51
2022/11/03 07:49:46;;;;;;;14.58;10.75;;;;;;;17.86;53.70;102065.73;1525888;92;21170;-51
2022/11/03 07:52:16;;;;;;;15.75;10.48;;;;;;;17.84;53.77;102063.16;1501290;94;21125;-50
2022/11/03 07:54:44;;;;;;;13.75;10.80;;;;;;;17.82;53.77;102061.03;1487280;94;21622;-51
2022/11/03 07:57:26;;;;;;;13.30;10.32;;;;;;;17.79;54.03;102063.74;1499320;94;21107;-51
2022/11/03 08:00:06;;;;;;;14.73;11.30;;;;;;;17.79;54.14;102057.61;1467512;96;21221;-51
2022/11/03 08:02:49;;;;;;;11.38;9.78;;;;;;;17.77;54.34;102060.74;1479167;94;21140;-51
2022/11/03 08:05:16;;;;;;;20.05;10.43;;;;;;;17.77;54.44;102058.98;1487214;95;21172;-50
2022/11/03 08:07:43;;;;;;;12.18;10.70;;;;;;;17.75;54.48;102054.22;1487400;94;21647;-50
2022/11/03 08:10:12;;;;;;;12.50;10.50;;;;;;;17.74;54.58;102057.74;1499136;95;21140;-50
2022/11/03 08:12:40;;;;;;;12.90;10.98;;;;;;;17.75;54.67;102051.58;1491030;93;21129;-50
2022/11/03 08:15:10;;;;;;;13.68;10.98;;;;;;;17.77;54.76;102048.45;1514678;93;21134;-50
2022/11/03 08:17:39;;;;;;;13.03;10.78;;;;;;;17.81;54.64;102053.16;1515514;93;21210;-50
2022/11/03 08:20:06;;;;;;;15.25;12.55;;;;;;;17.82;54.66;102049.19;1518535;93;21634;-50
2022/11/03 08:22:34;;;;;;;14.50;11.33;;;;;;;17.83;54.68;102040.36;1539425;90;21058;-51
2022/11/03 08:25:01;;;;;;;14.47;11.70;;;;;;;17.85;54.66;102037.22;1595867;89;21583;-50
2022/11/03 08:27:27;;;;;;;14.47;11.78;;;;;;;17.88;54.73;102037.14;1596931;88;21051;-51
2022/11/03 08:29:54;;;;;;;15.28;12.82;;;;;;;17.91;54.75;102046.69;1629043;87;21088;-50
2022/11/03 08:32:22;;;;;;;18.32;13.70;;;;;;;17.93;54.79;102044.03;1625453;88;21086;-50
2022/11/03 08:34:48;;;;;;;21.60;14.90;;;;;;;17.96;54.86;102050.50;1617387;87;21114;-50
2022/11/03 08:37:15;;;;;;;16.15;14.07;;;;;;;18.02;54.82;102054.25;1670869;83;21533;-50
2022/11/03 08:39:41;;;;;;;16.10;13.60;;;;;;;18.08;54.70;102048.78;1745436;81;21093;-50
2022/11/03 08:42:08;;;;;;;18.15;14.45;;;;;;;18.13;54.55;102050.83;1747705;81;21050;-50
2022/11/03 08:44:35;;;;;;;19.17;14.30;;;;;;;18.16;54.49;102046.77;1744826;81;21117;-50
2022/11/03 08:47:02;;;;;;;19.50;13.80;;;;;;;18.22;54.28;102050.52;1743412;80;21046;-50
2022/11/03 08:49:29;;;;;;;17.05;13.85;;;;;;;18.23;54.23;102048.30;1753101;80;21025;-51
2022/11/03 08:51:56;;;;;;;15.65;12.65;;;;;;;18.24;54.23;102055.28;1754755;80;21535;-50
2022/11/03 08:54:22;;;;;;;16.23;13.80;;;;;;;18.26;54.41;102053.48;1745716;80;21090;-52
2022/11/03 08:56:49;;;;;;;15.65;12.82;;;;;;;18.31;54.53;102052.41;1768457;80;21043;-51
2022/11/03 08:59:17;;;;;;;15.55;12.82;;;;;;;18.41;54.46;102053.83;1752032;80;21002;-50
2022/11/03 09:01:45;;;;;;;17.57;13.60;;;;;;;18.53;54.27;102052.56;1760322;80;21015;-51
2022/11/03 09:04:12;;;;;;;16.75;13.10;;;;;;;18.60;54.08;102051.02;1759360;80;21062;-51
2022/11/03 09:06:40;;;;;;;17.57;12.78;;;;;;;18.67;53.91;102050.31;1760040;81;21043;-53
2022/11/03 09:09:06;;;;;;;15.53;13.30;;;;;;;18.73;53.84;102052.77;1759142;80;21006;-51
2022/11/03 09:11:33;;;;;;;14.55;12.43;;;;;;;18.78;53.80;102053.91;1755021;81;21087;-50
2022/11/03 09:14:01;;;;;;;17.10;13.03;;;;;;;18.85;53.81;102047.51;1751224;80;21030;-50
2022/11/03 09:16:28;;;;;;;17.37;13.62;;;;;;;18.91;53.66;102038.92;1752698;80;20999;-50
2022/11/03 09:18:56;;;;;;;15.53;12.50;;;;;;;18.94;53.31;102033.52;1770154;80;21506;-50
2022/11/03 09:21:23;;;;;;;16.65;13.68;;;;;;;18.97;53.38;102033.43;1753029;80;21075;-50
2022/11/03 09:23:50;;;;;;;15.32;12.45;;;;;;;19.00;53.31;102031.98;1759201;80;21498;-50
2022/11/03 09:26:16;;;;;;;15.13;12.65;;;;;;;19.04;53.19;102025.67;1762689;80;21586;-51
2022/11/03 09:28:43;;;;;;;14.45;12.93;;;;;;;19.09;53.13;102034.30;1763330;80;21100;-51
2022/11/03 09:31:10;;;;;;;15.93;12.75;;;;;;;19.13;53.03;102033.27;1762491;80;21099;-51
2022/11/03 09:33:37;;;;;;;16.48;13.38;;;;;;;19.15;52.97;102038.03;1746324;80;21523;-51
2022/11/03 09:36:05;;;;;;;15.95;12.40;;;;;;;19.14;53.00;102035.45;1753563;80;21102;-50
2022/11/03 09:38:33;;;;;;;15.65;12.78;;;;;;;19.12;52.97;102032.88;1750467;80;21487;-51
2022/11/03 09:40:59;;;;;;;16.67;13.62;;;;;;;19.13;53.04;102037.22;1756600;80;21401;-51
2022/11/03 09:43:26;;;;;;;16.50;13.93;;;;;;;19.13;53.08;102031.95;1757372;80;21070;-50
2022/11/03 09:45:53;;;;;;;14.87;13.10;;;;;;;19.15;53.09;102029.24;1756940;80;21038;-52
2022/11/03 09:48:19;;;;;;;15.20;13.60;;;;;;;19.21;53.02;102031.66;1750498;80;21521;-50
2022/11/03 09:50:49;;;;;;;15.75;12.73;;;;;;;19.26;53.08;102026.63;1755460;80;21002;-51
2022/11/03 09:53:16;;;;;;;14.85;13.05;;;;;;;19.32;53.13;102023.75;1748813;80;20974;-51
2022/11/03 09:55:43;;;;;;;14.25;12.75;;;;;;;19.30;52.91;102018.99;1747988;80;21485;-51
2022/11/03 09:58:13;;;;;;;16.93;13.58;;;;;;;19.25;52.73;102011.70;1758624;80;21054;-51
2022/11/03 10:00:40;;;;;;;15.25;12.98;;;;;;;19.19;52.71;102015.88;1756715;80;21546;-49
2022/11/03 10:03:13;;;;;;;21.12;12.90;;;;;;;19.14;52.90;102011.26;1754189;80;21054;-50
2022/11/03 10:05:41;;;;;;;15.53;12.53;;;;;;;19.16;52.82;102009.87;1730268;82;21637;-49
2022/11/03 10:08:26;;;;;;;13.70;11.50;;;;;;;19.17;52.65;101999.25;1670157;83;21054;-51
2022/11/03 10:10:54;;;;;;;14.50;12.40;;;;;;;19.22;52.37;102002.59;1677614;83;21093;-50
2022/11/03 10:13:42;;;;;;;16.62;12.80;;;;;;;19.27;52.09;102002.39;1689191;83;21038;-49
2022/11/03 10:16:12;;;;;;;16.40;12.13;;;;;;;19.31;51.94;101995.63;1666123;85;21518;-50
2022/11/03 10:18:39;;;;;;;16.25;12.75;;;;;;;19.36;51.61;101984.48;1658069;85;21104;-50
2022/11/03 10:21:17;;;;;;;14.85;12.20;;;;;;;19.39;51.51;101987.47;1667895;84;21525;-49
2022/11/03 10:23:44;;;;;;;12.07;10.68;;;;;;;19.42;51.57;101984.24;1689911;82;21153;-49
2022/11/03 10:26:17;;;;;;;11.97;10.15;;;;;;;19.46;51.40;101980.56;1706541;83;21097;-49
2022/11/03 10:29:10;;;;;;;12.45;10.68;;;;;;;19.49;50.75;101977.78;1703837;82;21078;-50
2022/11/03 10:31:39;;;;;;;13.28;10.53;;;;;;;19.52;50.80;101978.58;1703248;83;22089;-50
2022/11/03 10:34:24;;;;;;;12.20;10.48;;;;;;;19.53;50.83;101981.19;1692867;83;21529;-50
2022/11/03 10:37:10;;;;;;;13.43;10.35;;;;;;;19.56;50.75;101969.66;1698043;83;21050;-49
2022/11/03 10:39:36;;;;;;;13.60;10.55;;;;;;;19.59;50.53;101966.88;1634034;86;21077;-50
2022/11/03 10:42:04;;;;;;;14.13;10.48;;;;;;;19.59;50.31;101970.38;1646453;86;21693;-50
2022/11/03 10:44:31;;;;;;;11.00;9.40;;;;;;;19.62;50.25;101961.48;1654519;86;21547;-49
2022/11/03 10:47:03;;;;;;;11.93;9.15;;;;;;;19.62;49.79;101958.36;1624835;87;21073;-50
2022/11/03 10:49:35;;;;;;;13.60;8.93;;;;;;;19.62;49.50;101958.36;1615337;87;21116;-49
2022/11/03 10:52:19;;;;;;;8.73;7.83;;;;;;;19.63;49.30;101948.66;1614845;88;21109;-50
2022/11/03 10:54:46;;;;;;;8.33;7.40;;;;;;;19.67;49.14;101943.66;1589307;88;21078;-50
2022/11/03 10:57:13;;;;;;;9.43;8.18;;;;;;;19.71;48.53;101947.44;1608793;87;21068;-52
2022/11/03 10:59:41;;;;;;;8.90;8.00;;;;;;;19.74;48.21;101943.33;1624606;87;21070;-50
2022/11/03 11:02:18;;;;;;;9.28;7.60;;;;;;;19.79;47.94;101947.11;1633687;86;21006;-50
2022/11/03 11:04:48;;;;;;;8.65;7.40;;;;;;;19.83;47.69;101940.78;1660093;83;21543;-49
2022/11/03 11:07:27;;;;;;;11.80;7.63;;;;;;;19.88;47.59;101944.11;1689949;83;21011;-50
2022/11/03 11:09:54;;;;;;;11.35;7.12;;;;;;;19.94;47.54;101941.21;1681549;84;21086;-49
2022/11/03 11:12:23;;;;;;;8.83;6.72;;;;;;;19.96;47.01;101938.04;1669570;83;21076;-51
2022/11/03 11:14:57;;;;;;;9.08;6.87;;;;;;;19.97;46.53;101931.84;1652554;84;21072;-49
2022/11/03 11:17:46;;;;;;;9.85;7.15;;;;;;;19.97;46.08;101927.41;1683156;83;20995;-50
2022/11/03 11:20:33;;;;;;;7.35;6.42;;;;;;;19.98;45.75;101925.63;1675795;83;21071;-50
2022/11/03 11:23:30;;;;;;;9.48;7.10;;;;;;;19.97;45.53;101922.61;1662510;83;21086;-49
2022/11/03 11:26:12;;;;;;;8.95;6.55;;;;;;;19.97;44.98;101916.00;1687145;83;21015;-50
2022/11/03 11:28:41;;;;;;;7.17;6.47;;;;;;;20.00;44.78;101915.85;1670996;83;21132;-50
2022/11/03 11:31:29;;;;;;;6.95;6.33;;;;;;;20.04;44.66;101912.16;1708233;80;21057;-50
2022/11/03 11:34:19;;;;;;;8.43;6.17;;;;;;;20.07;44.40;101905.44;1743641;80;21054;-49
2022/11/03 11:36:56;;;;;;;7.62;5.95;;;;;;;20.11;43.23;101903.89;1753648;80;21102;-50
2022/11/03 11:39:34;;;;;;;8.10;5.62;;;;;;;20.15;42.69;101899.35;1760338;80;21028;-50
2022/11/03 11:42:18;;;;;;;7.60;5.47;;;;;;;20.19;42.03;101899.19;1746537;80;21041;-50
2022/11/03 11:44:50;;;;;;;6.60;4.97;;;;;;;20.25;41.17;101891.45;1757302;80;20996;-49
2022/11/03 11:47:25;;;;;;;8.45;5.83;;;;;;;20.32;41.11;101898.16;1743937;80;21001;-50